sensor_id;sensor_type;location;lat;lon;timestamp;temperature;humidity
73121;DHT22;61307;49.628;-1.624;2023-03-23T00:00:10;18.80;52.20
73121;DHT22;61307;49.628;-1.624;2023-03-23T00:02:39;18.70;52.10
73121;DHT22;61307;49.628;-1.624;2023-03-23T00:05:07;18.70;52.10
73121;DHT22;61307;49.628;-1.624;2023-03-23T00:07:35;18.80;52.20
73121;DHT22;61307;49.628;-1.624;2023-03-23T00:10:04;18.70;52.10
73121;DHT22;61307;49.628;-1.624;2023-03-23T00:12:32;18.70;52.10
73121;DHT22;61307;49.628;-1.624;2023-03-23T00:15:00;18.70;52.10
73121;DHT22;61307;49.628;-1.624;2023-03-23T00:17:28;18.70;52.10
73121;DHT22;61307;49.628;-1.624;2023-03-23T00:19:56;18.70;52.10
73121;DHT22;61307;49.628;-1.624;2023-03-23T00:22:23;18.70;52.10
73121;DHT22;61307;49.628;-1.624;2023-03-23T00:24:51;18.70;52.10
73121;DHT22;61307;49.628;-1.624;2023-03-23T00:27:20;18.70;52.10
73121;DHT22;61307;49.628;-1.624;2023-03-23T00:29:49;18.70;52.20
73121;DHT22;61307;49.628;-1.624;2023-03-23T00:32:19;18.70;52.20
73121;DHT22;61307;49.628;-1.624;2023-03-23T00:34:47;18.70;52.10
73121;DHT22;61307;49.628;-1.624;2023-03-23T00:37:15;18.70;52.20
73121;DHT22;61307;49.628;-1.624;2023-03-23T00:39:43;18.70;52.10
73121;DHT22;61307;49.628;-1.624;2023-03-23T00:42:12;18.70;52.10
73121;DHT22;61307;49.628;-1.624;2023-03-23T00:44:41;18.70;52.20
73121;DHT22;61307;49.628;-1.624;2023-03-23T00:47:10;18.70;52.20
73121;DHT22;61307;49.628;-1.624;2023-03-23T00:49:39;18.70;52.20
73121;DHT22;61307;49.628;-1.624;2023-03-23T00:52:07;18.70;52.20
73121;DHT22;61307;49.628;-1.624;2023-03-23T00:54:34;18.70;52.10
73121;DHT22;61307;49.628;-1.624;2023-03-23T00:57:04;18.60;52.10
73121;DHT22;61307;49.628;-1.624;2023-03-23T00:59:33;18.60;52.10
73121;DHT22;61307;49.628;-1.624;2023-03-23T01:02:01;18.60;52.10
73121;DHT22;61307;49.628;-1.624;2023-03-23T01:04:28;18.60;52.10
73121;DHT22;61307;49.628;-1.624;2023-03-23T01:06:57;18.60;52.10
73121;DHT22;61307;49.628;-1.624;2023-03-23T01:09:28;18.60;52.10
73121;DHT22;61307;49.628;-1.624;2023-03-23T01:11:55;18.60;52.10
73121;DHT22;61307;49.628;-1.624;2023-03-23T01:14:23;18.60;52.70
73121;DHT22;61307;49.628;-1.624;2023-03-23T01:16:51;18.60;52.10
73121;DHT22;61307;49.628;-1.624;2023-03-23T01:19:19;18.60;52.00
73121;DHT22;61307;49.628;-1.624;2023-03-23T01:21:46;18.60;52.10
73121;DHT22;61307;49.628;-1.624;2023-03-23T01:24:14;18.60;52.00
73121;DHT22;61307;49.628;-1.624;2023-03-23T01:26:42;18.60;52.00
73121;DHT22;61307;49.628;-1.624;2023-03-23T01:29:09;18.50;52.00
73121;DHT22;61307;49.628;-1.624;2023-03-23T01:31:36;18.60;52.00
73121;DHT22;61307;49.628;-1.624;2023-03-23T01:34:03;18.60;52.00
73121;DHT22;61307;49.628;-1.624;2023-03-23T01:36:32;18.60;52.00
73121;DHT22;61307;49.628;-1.624;2023-03-23T01:39:00;18.60;52.00
73121;DHT22;61307;49.628;-1.624;2023-03-23T01:41:29;18.60;52.00
73121;DHT22;61307;49.628;-1.624;2023-03-23T01:44:01;18.60;52.00
73121;DHT22;61307;49.628;-1.624;2023-03-23T01:46:30;18.60;52.00
73121;DHT22;61307;49.628;-1.624;2023-03-23T01:49:00;18.60;52.00
73121;DHT22;61307;49.628;-1.624;2023-03-23T01:51:36;18.50;51.90
73121;DHT22;61307;49.628;-1.624;2023-03-23T01:54:06;18.50;51.90
73121;DHT22;61307;49.628;-1.624;2023-03-23T01:56:40;18.50;52.50
73121;DHT22;61307;49.628;-1.624;2023-03-23T01:59:11;18.50;51.90
73121;DHT22;61307;49.628;-1.624;2023-03-23T02:01:39;18.50;51.90
73121;DHT22;61307;49.628;-1.624;2023-03-23T02:04:12;18.50;51.90
73121;DHT22;61307;49.628;-1.624;2023-03-23T02:06:41;18.50;51.90
73121;DHT22;61307;49.628;-1.624;2023-03-23T02:09:10;18.50;51.90
73121;DHT22;61307;49.628;-1.624;2023-03-23T02:11:39;18.50;51.90
73121;DHT22;61307;49.628;-1.624;2023-03-23T02:14:06;18.50;51.90
73121;DHT22;61307;49.628;-1.624;2023-03-23T02:16:40;18.50;51.80
73121;DHT22;61307;49.628;-1.624;2023-03-23T02:22:22;18.50;51.90
73121;DHT22;61307;49.628;-1.624;2023-03-23T02:24:57;18.50;51.90
73121;DHT22;61307;49.628;-1.624;2023-03-23T02:28:06;18.50;51.90
73121;DHT22;61307;49.628;-1.624;2023-03-23T02:30:52;18.50;51.80
73121;DHT22;61307;49.628;-1.624;2023-03-23T02:33:40;18.50;51.80
73121;DHT22;61307;49.628;-1.624;2023-03-23T02:36:14;18.40;51.80
73121;DHT22;61307;49.628;-1.624;2023-03-23T02:38:47;18.50;51.80
73121;DHT22;61307;49.628;-1.624;2023-03-23T02:41:20;18.40;51.80
73121;DHT22;61307;49.628;-1.624;2023-03-23T02:43:49;18.40;51.80
73121;DHT22;61307;49.628;-1.624;2023-03-23T02:46:19;18.40;51.80
73121;DHT22;61307;49.628;-1.624;2023-03-23T02:48:51;18.40;51.80
73121;DHT22;61307;49.628;-1.624;2023-03-23T02:51:22;18.40;51.80
73121;DHT22;61307;49.628;-1.624;2023-03-23T02:53:54;18.40;51.80
73121;DHT22;61307;49.628;-1.624;2023-03-23T02:56:23;18.40;51.80
73121;DHT22;61307;49.628;-1.624;2023-03-23T02:58:54;18.40;51.80
73121;DHT22;61307;49.628;-1.624;2023-03-23T03:01:57;18.40;51.70
73121;DHT22;61307;49.628;-1.624;2023-03-23T03:04:29;18.40;51.70
73121;DHT22;61307;49.628;-1.624;2023-03-23T03:07:16;18.40;51.80
73121;DHT22;61307;49.628;-1.624;2023-03-23T03:09:49;18.40;51.80
73121;DHT22;61307;49.628;-1.624;2023-03-23T03:12:26;18.40;51.80
73121;DHT22;61307;49.628;-1.624;2023-03-23T03:15:00;18.40;51.80
73121;DHT22;61307;49.628;-1.624;2023-03-23T03:17:31;18.40;51.80
73121;DHT22;61307;49.628;-1.624;2023-03-23T03:20:04;18.40;51.80
73121;DHT22;61307;49.628;-1.624;2023-03-23T03:22:36;18.40;51.80
73121;DHT22;61307;49.628;-1.624;2023-03-23T03:25:08;18.40;51.80
73121;DHT22;61307;49.628;-1.624;2023-03-23T03:27:39;18.40;51.80
73121;DHT22;61307;49.628;-1.624;2023-03-23T03:30:09;18.40;51.80
73121;DHT22;61307;49.628;-1.624;2023-03-23T03:32:44;18.40;51.80
73121;DHT22;61307;49.628;-1.624;2023-03-23T03:35:16;18.40;51.80
73121;DHT22;61307;49.628;-1.624;2023-03-23T03:37:43;18.30;51.90
73121;DHT22;61307;49.628;-1.624;2023-03-23T03:40:15;18.40;51.80
73121;DHT22;61307;49.628;-1.624;2023-03-23T03:42:44;18.40;51.80
73121;DHT22;61307;49.628;-1.624;2023-03-23T03:45:13;18.40;51.90
73121;DHT22;61307;49.628;-1.624;2023-03-23T03:47:41;18.30;51.80
73121;DHT22;61307;49.628;-1.624;2023-03-23T03:50:08;18.30;51.80
73121;DHT22;61307;49.628;-1.624;2023-03-23T03:52:38;18.30;51.80
73121;DHT22;61307;49.628;-1.624;2023-03-23T03:55:07;18.30;51.80
73121;DHT22;61307;49.628;-1.624;2023-03-23T03:57:35;18.30;51.80
73121;DHT22;61307;49.628;-1.624;2023-03-23T04:00:03;18.30;51.80
73121;DHT22;61307;49.628;-1.624;2023-03-23T04:02:41;18.30;51.80
73121;DHT22;61307;49.628;-1.624;2023-03-23T04:05:09;18.30;51.80
73121;DHT22;61307;49.628;-1.624;2023-03-23T04:07:38;18.30;51.80
73121;DHT22;61307;49.628;-1.624;2023-03-23T04:10:10;18.30;51.80
73121;DHT22;61307;49.628;-1.624;2023-03-23T04:12:39;18.30;51.80
73121;DHT22;61307;49.628;-1.624;2023-03-23T04:15:07;18.30;51.80
73121;DHT22;61307;49.628;-1.624;2023-03-23T04:17:35;18.30;51.80
73121;DHT22;61307;49.628;-1.624;2023-03-23T04:20:04;18.30;51.80
73121;DHT22;61307;49.628;-1.624;2023-03-23T04:22:39;18.30;51.80
73121;DHT22;61307;49.628;-1.624;2023-03-23T04:25:10;18.30;51.80
73121;DHT22;61307;49.628;-1.624;2023-03-23T04:27:38;18.30;51.80
73121;DHT22;61307;49.628;-1.624;2023-03-23T04:30:10;18.30;51.80
73121;DHT22;61307;49.628;-1.624;2023-03-23T04:32:38;18.30;51.80
73121;DHT22;61307;49.628;-1.624;2023-03-23T04:35:08;18.30;51.90
73121;DHT22;61307;49.628;-1.624;2023-03-23T04:37:38;18.30;51.80
73121;DHT22;61307;49.628;-1.624;2023-03-23T04:40:07;18.20;51.80
73121;DHT22;61307;49.628;-1.624;2023-03-23T04:42:38;18.30;51.80
73121;DHT22;61307;49.628;-1.624;2023-03-23T04:45:06;18.20;51.80
73121;DHT22;61307;49.628;-1.624;2023-03-23T04:47:36;18.30;51.90
73121;DHT22;61307;49.628;-1.624;2023-03-23T04:50:07;18.30;51.80
73121;DHT22;61307;49.628;-1.624;2023-03-23T04:52:35;18.30;51.80
73121;DHT22;61307;49.628;-1.624;2023-03-23T04:55:08;18.30;51.80
73121;DHT22;61307;49.628;-1.624;2023-03-23T04:57:35;18.30;51.80
73121;DHT22;61307;49.628;-1.624;2023-03-23T05:00:05;18.20;51.80
73121;DHT22;61307;49.628;-1.624;2023-03-23T05:02:35;18.30;51.80
73121;DHT22;61307;49.628;-1.624;2023-03-23T05:05:02;18.20;51.80
73121;DHT22;61307;49.628;-1.624;2023-03-23T05:07:30;18.30;52.50
73121;DHT22;61307;49.628;-1.624;2023-03-23T05:09:57;18.20;51.70
73121;DHT22;61307;49.628;-1.624;2023-03-23T05:12:26;18.20;51.70
73121;DHT22;61307;49.628;-1.624;2023-03-23T05:14:53;18.20;51.70
73121;DHT22;61307;49.628;-1.624;2023-03-23T05:17:21;18.20;51.80
73121;DHT22;61307;49.628;-1.624;2023-03-23T05:19:50;18.20;51.70
73121;DHT22;61307;49.628;-1.624;2023-03-23T05:22:17;18.20;51.70
73121;DHT22;61307;49.628;-1.624;2023-03-23T05:24:46;18.30;51.80
73121;DHT22;61307;49.628;-1.624;2023-03-23T05:27:14;18.20;51.80
73121;DHT22;61307;49.628;-1.624;2023-03-23T05:29:46;18.20;51.70
73121;DHT22;61307;49.628;-1.624;2023-03-23T05:32:14;18.20;51.70
73121;DHT22;61307;49.628;-1.624;2023-03-23T05:34:41;18.20;51.70
73121;DHT22;61307;49.628;-1.624;2023-03-23T05:37:09;18.20;51.70
73121;DHT22;61307;49.628;-1.624;2023-03-23T05:39:38;18.20;51.70
73121;DHT22;61307;49.628;-1.624;2023-03-23T05:42:06;18.20;51.70
73121;DHT22;61307;49.628;-1.624;2023-03-23T05:44:33;18.20;51.70
73121;DHT22;61307;49.628;-1.624;2023-03-23T05:47:03;18.20;51.70
73121;DHT22;61307;49.628;-1.624;2023-03-23T05:49:30;18.20;52.40
73121;DHT22;61307;49.628;-1.624;2023-03-23T05:51:58;18.20;51.80
73121;DHT22;61307;49.628;-1.624;2023-03-23T05:54:25;18.20;51.70
73121;DHT22;61307;49.628;-1.624;2023-03-23T05:56:52;18.30;51.80
73121;DHT22;61307;49.628;-1.624;2023-03-23T05:59:19;18.20;51.70
73121;DHT22;61307;49.628;-1.624;2023-03-23T06:01:47;18.30;51.80
73121;DHT22;61307;49.628;-1.624;2023-03-23T06:04:18;18.20;51.70
73121;DHT22;61307;49.628;-1.624;2023-03-23T06:06:45;18.30;51.80
73121;DHT22;61307;49.628;-1.624;2023-03-23T06:09:12;18.30;51.80
73121;DHT22;61307;49.628;-1.624;2023-03-23T06:11:39;18.30;51.70
73121;DHT22;61307;49.628;-1.624;2023-03-23T06:14:06;18.30;51.70
73121;DHT22;61307;49.628;-1.624;2023-03-23T06:16:34;18.40;51.80
73121;DHT22;61307;49.628;-1.624;2023-03-23T06:19:01;18.40;51.70
73121;DHT22;61307;49.628;-1.624;2023-03-23T06:21:31;18.40;51.70
73121;DHT22;61307;49.628;-1.624;2023-03-23T06:23:58;18.40;51.70
73121;DHT22;61307;49.628;-1.624;2023-03-23T06:26:28;18.40;51.70
73121;DHT22;61307;49.628;-1.624;2023-03-23T06:28:59;18.40;51.70
73121;DHT22;61307;49.628;-1.624;2023-03-23T06:31:27;18.40;51.60
73121;DHT22;61307;49.628;-1.624;2023-03-23T06:33:54;18.40;51.60
73121;DHT22;61307;49.628;-1.624;2023-03-23T06:36:22;18.50;51.70
73121;DHT22;61307;49.628;-1.624;2023-03-23T06:38:50;18.50;51.60
73121;DHT22;61307;49.628;-1.624;2023-03-23T06:41:18;18.50;51.60
73121;DHT22;61307;49.628;-1.624;2023-03-23T06:43:45;18.50;51.50
73121;DHT22;61307;49.628;-1.624;2023-03-23T06:46:12;18.50;51.60
73121;DHT22;61307;49.628;-1.624;2023-03-23T06:48:40;18.60;51.60
73121;DHT22;61307;49.628;-1.624;2023-03-23T06:51:07;18.50;51.50
73121;DHT22;61307;49.628;-1.624;2023-03-23T06:53:34;18.60;51.60
73121;DHT22;61307;49.628;-1.624;2023-03-23T06:56:03;18.60;51.50
73121;DHT22;61307;49.628;-1.624;2023-03-23T06:58:32;18.60;51.50
73121;DHT22;61307;49.628;-1.624;2023-03-23T07:01:00;18.60;51.50
73121;DHT22;61307;49.628;-1.624;2023-03-23T07:03:27;18.60;51.40
73121;DHT22;61307;49.628;-1.624;2023-03-23T07:05:57;18.60;51.40
73121;DHT22;61307;49.628;-1.624;2023-03-23T07:08:24;18.60;51.40
73121;DHT22;61307;49.628;-1.624;2023-03-23T07:10:52;18.60;51.40
73121;DHT22;61307;49.628;-1.624;2023-03-23T07:13:22;18.60;51.40
73121;DHT22;61307;49.628;-1.624;2023-03-23T07:15:49;18.70;51.40
73121;DHT22;61307;49.628;-1.624;2023-03-23T07:18:17;18.60;51.30
73121;DHT22;61307;49.628;-1.624;2023-03-23T07:20:47;18.60;51.30
73121;DHT22;61307;49.628;-1.624;2023-03-23T07:23:14;18.70;51.40
73121;DHT22;61307;49.628;-1.624;2023-03-23T07:25:42;18.70;51.40
73121;DHT22;61307;49.628;-1.624;2023-03-23T07:28:11;18.70;51.40
73121;DHT22;61307;49.628;-1.624;2023-03-23T07:30:39;18.70;51.40
73121;DHT22;61307;49.628;-1.624;2023-03-23T07:33:07;18.70;51.40
73121;DHT22;61307;49.628;-1.624;2023-03-23T07:35:35;18.70;51.40
73121;DHT22;61307;49.628;-1.624;2023-03-23T07:38:05;18.70;51.40
73121;DHT22;61307;49.628;-1.624;2023-03-23T07:40:32;18.70;51.40
73121;DHT22;61307;49.628;-1.624;2023-03-23T07:43:01;18.70;51.40
73121;DHT22;61307;49.628;-1.624;2023-03-23T07:45:29;18.70;51.40
73121;DHT22;61307;49.628;-1.624;2023-03-23T07:47:59;18.80;51.40
73121;DHT22;61307;49.628;-1.624;2023-03-23T07:50:26;18.80;51.40
73121;DHT22;61307;49.628;-1.624;2023-03-23T07:52:55;18.80;51.40
73121;DHT22;61307;49.628;-1.624;2023-03-23T07:55:23;18.80;51.40
73121;DHT22;61307;49.628;-1.624;2023-03-23T07:57:51;18.80;51.40
73121;DHT22;61307;49.628;-1.624;2023-03-23T08:00:21;18.80;52.00
73121;DHT22;61307;49.628;-1.624;2023-03-23T08:02:51;18.80;51.30
73121;DHT22;61307;49.628;-1.624;2023-03-23T08:05:20;18.80;51.30
73121;DHT22;61307;49.628;-1.624;2023-03-23T08:07:50;18.80;51.30
73121;DHT22;61307;49.628;-1.624;2023-03-23T08:10:18;18.80;51.30
73121;DHT22;61307;49.628;-1.624;2023-03-23T08:12:51;18.80;51.30
73121;DHT22;61307;49.628;-1.624;2023-03-23T08:15:18;18.80;51.30
73121;DHT22;61307;49.628;-1.624;2023-03-23T08:17:47;18.80;51.20
73121;DHT22;61307;49.628;-1.624;2023-03-23T08:20:14;18.90;51.20
73121;DHT22;61307;49.628;-1.624;2023-03-23T08:22:45;18.90;51.20
73121;DHT22;61307;49.628;-1.624;2023-03-23T08:25:14;18.90;51.20
73121;DHT22;61307;49.628;-1.624;2023-03-23T08:27:43;18.90;51.20
73121;DHT22;61307;49.628;-1.624;2023-03-23T08:30:12;18.90;51.20
73121;DHT22;61307;49.628;-1.624;2023-03-23T08:32:39;19.00;51.30
73121;DHT22;61307;49.628;-1.624;2023-03-23T08:35:07;19.00;51.30
73121;DHT22;61307;49.628;-1.624;2023-03-23T08:37:35;19.00;51.30
73121;DHT22;61307;49.628;-1.624;2023-03-23T08:40:05;19.10;51.30
73121;DHT22;61307;49.628;-1.624;2023-03-23T08:42:35;19.10;51.30
73121;DHT22;61307;49.628;-1.624;2023-03-23T08:45:04;19.10;51.20
73121;DHT22;61307;49.628;-1.624;2023-03-23T08:47:31;19.10;51.20
73121;DHT22;61307;49.628;-1.624;2023-03-23T08:49:58;19.10;51.20
73121;DHT22;61307;49.628;-1.624;2023-03-23T08:52:25;19.10;51.20
73121;DHT22;61307;49.628;-1.624;2023-03-23T08:54:53;19.10;51.20
73121;DHT22;61307;49.628;-1.624;2023-03-23T08:57:22;19.20;51.20
73121;DHT22;61307;49.628;-1.624;2023-03-23T08:59:49;19.20;51.30
73121;DHT22;61307;49.628;-1.624;2023-03-23T09:02:17;19.20;51.20
73121;DHT22;61307;49.628;-1.624;2023-03-23T09:04:44;19.20;51.80
73121;DHT22;61307;49.628;-1.624;2023-03-23T09:07:11;19.20;51.20
73121;DHT22;61307;49.628;-1.624;2023-03-23T09:09:41;19.20;51.20
73121;DHT22;61307;49.628;-1.624;2023-03-23T09:12:08;19.30;51.30
73121;DHT22;61307;49.628;-1.624;2023-03-23T09:14:38;19.30;51.30
73121;DHT22;61307;49.628;-1.624;2023-03-23T09:17:05;19.30;51.30
73121;DHT22;61307;49.628;-1.624;2023-03-23T09:19:34;19.30;51.20
73121;DHT22;61307;49.628;-1.624;2023-03-23T09:22:02;19.40;51.30
73121;DHT22;61307;49.628;-1.624;2023-03-23T09:24:29;19.40;51.20
73121;DHT22;61307;49.628;-1.624;2023-03-23T09:26:56;19.40;51.20
73121;DHT22;61307;49.628;-1.624;2023-03-23T09:29:25;19.40;51.10
73121;DHT22;61307;49.628;-1.624;2023-03-23T09:31:53;19.40;51.10
73121;DHT22;61307;49.628;-1.624;2023-03-23T09:34:22;19.40;51.10
73121;DHT22;61307;49.628;-1.624;2023-03-23T09:36:49;19.50;51.10
73121;DHT22;61307;49.628;-1.624;2023-03-23T09:39:18;19.50;51.00
73121;DHT22;61307;49.628;-1.624;2023-03-23T09:42:10;19.50;51.00
73121;DHT22;61307;49.628;-1.624;2023-03-23T09:44:48;19.50;50.90
73121;DHT22;61307;49.628;-1.624;2023-03-23T09:47:21;19.50;50.90
73121;DHT22;61307;49.628;-1.624;2023-03-23T09:49:56;19.50;50.90
73121;DHT22;61307;49.628;-1.624;2023-03-23T09:52:36;19.50;50.90
73121;DHT22;61307;49.628;-1.624;2023-03-23T09:55:05;19.50;50.90
73121;DHT22;61307;49.628;-1.624;2023-03-23T09:57:40;19.60;51.00
73121;DHT22;61307;49.628;-1.624;2023-03-23T10:00:12;19.50;50.90
73121;DHT22;61307;49.628;-1.624;2023-03-23T10:02:54;19.50;50.90
73121;DHT22;61307;49.628;-1.624;2023-03-23T10:05:33;19.60;50.90
73121;DHT22;61307;49.628;-1.624;2023-03-23T10:08:05;19.60;50.80
73121;DHT22;61307;49.628;-1.624;2023-03-23T10:10:45;19.60;50.80
73121;DHT22;61307;49.628;-1.624;2023-03-23T10:13:19;19.60;50.70
73121;DHT22;61307;49.628;-1.624;2023-03-23T10:15:49;19.60;50.70
73121;DHT22;61307;49.628;-1.624;2023-03-23T10:18:23;19.70;50.70
73121;DHT22;61307;49.628;-1.624;2023-03-23T10:20:55;19.70;50.70
73121;DHT22;61307;49.628;-1.624;2023-03-23T10:23:43;19.60;50.60
73121;DHT22;61307;49.628;-1.624;2023-03-23T10:26:20;19.60;50.60
73121;DHT22;61307;49.628;-1.624;2023-03-23T10:28:52;19.70;50.70
73121;DHT22;61307;49.628;-1.624;2023-03-23T10:31:24;19.70;50.70
73121;DHT22;61307;49.628;-1.624;2023-03-23T10:33:57;19.70;50.70
73121;DHT22;61307;49.628;-1.624;2023-03-23T10:36:28;19.70;50.70
73121;DHT22;61307;49.628;-1.624;2023-03-23T10:39:02;19.70;50.70
73121;DHT22;61307;49.628;-1.624;2023-03-23T10:41:30;19.70;50.70
73121;DHT22;61307;49.628;-1.624;2023-03-23T10:43:57;19.80;50.70
73121;DHT22;61307;49.628;-1.624;2023-03-23T10:46:42;19.80;50.70
73121;DHT22;61307;49.628;-1.624;2023-03-23T10:49:19;19.70;50.60
73121;DHT22;61307;49.628;-1.624;2023-03-23T10:51:57;19.70;50.70
73121;DHT22;61307;49.628;-1.624;2023-03-23T10:54:31;19.80;50.80
73121;DHT22;61307;49.628;-1.624;2023-03-23T10:56:59;19.80;50.70
73121;DHT22;61307;49.628;-1.624;2023-03-23T10:59:29;19.80;50.70
73121;DHT22;61307;49.628;-1.624;2023-03-23T11:02:00;19.80;50.80
73121;DHT22;61307;49.628;-1.624;2023-03-23T11:04:30;19.80;50.70
73121;DHT22;61307;49.628;-1.624;2023-03-23T11:07:01;19.80;50.70
73121;DHT22;61307;49.628;-1.624;2023-03-23T11:09:36;19.80;50.70
73121;DHT22;61307;49.628;-1.624;2023-03-23T11:12:03;19.80;50.70
73121;DHT22;61307;49.628;-1.624;2023-03-23T11:14:32;19.80;50.70
73121;DHT22;61307;49.628;-1.624;2023-03-23T11:17:04;19.80;50.70
73121;DHT22;61307;49.628;-1.624;2023-03-23T11:19:35;19.80;50.70
73121;DHT22;61307;49.628;-1.624;2023-03-23T11:22:07;19.80;50.60
73121;DHT22;61307;49.628;-1.624;2023-03-23T11:24:46;19.80;50.70
73121;DHT22;61307;49.628;-1.624;2023-03-23T11:27:16;19.70;50.60
73121;DHT22;61307;49.628;-1.624;2023-03-23T11:29:52;19.70;50.60
73121;DHT22;61307;49.628;-1.624;2023-03-23T11:32:24;19.70;50.70
73121;DHT22;61307;49.628;-1.624;2023-03-23T11:34:57;19.70;50.60
73121;DHT22;61307;49.628;-1.624;2023-03-23T11:37:29;19.70;50.70
73121;DHT22;61307;49.628;-1.624;2023-03-23T11:39:59;19.80;50.70
73121;DHT22;61307;49.628;-1.624;2023-03-23T11:42:37;19.70;50.60
73121;DHT22;61307;49.628;-1.624;2023-03-23T11:45:20;19.70;50.70
73121;DHT22;61307;49.628;-1.624;2023-03-23T11:47:59;19.70;50.60
73121;DHT22;61307;49.628;-1.624;2023-03-23T11:50:32;19.70;50.60
73121;DHT22;61307;49.628;-1.624;2023-03-23T11:53:02;19.80;50.60
73121;DHT22;61307;49.628;-1.624;2023-03-23T11:55:50;19.70;50.50
73121;DHT22;61307;49.628;-1.624;2023-03-23T11:58:19;19.80;50.60
73121;DHT22;61307;49.628;-1.624;2023-03-23T12:01:04;19.80;50.70
73121;DHT22;61307;49.628;-1.624;2023-03-23T12:03:47;19.80;50.60
73121;DHT22;61307;49.628;-1.624;2023-03-23T12:06:22;19.80;50.70
73121;DHT22;61307;49.628;-1.624;2023-03-23T12:09:02;19.80;50.70
73121;DHT22;61307;49.628;-1.624;2023-03-23T12:11:37;19.80;50.60
73121;DHT22;61307;49.628;-1.624;2023-03-23T12:14:16;19.80;50.60
73121;DHT22;61307;49.628;-1.624;2023-03-23T12:16:58;19.80;50.60
73121;DHT22;61307;49.628;-1.624;2023-03-23T12:19:33;19.80;50.50
73121;DHT22;61307;49.628;-1.624;2023-03-23T12:22:12;19.90;50.60
73121;DHT22;61307;49.628;-1.624;2023-03-23T12:24:50;19.90;50.60
73121;DHT22;61307;49.628;-1.624;2023-03-23T12:27:26;19.90;50.50
73121;DHT22;61307;49.628;-1.624;2023-03-23T12:30:07;19.90;50.50
73121;DHT22;61307;49.628;-1.624;2023-03-23T12:35:42;19.90;50.40
73121;DHT22;61307;49.628;-1.624;2023-03-23T12:38:29;19.90;50.40
73121;DHT22;61307;49.628;-1.624;2023-03-23T12:41:11;19.90;50.50
73121;DHT22;61307;49.628;-1.624;2023-03-23T12:43:47;19.90;50.40
73121;DHT22;61307;49.628;-1.624;2023-03-23T12:49:09;20.00;50.60
73121;DHT22;61307;49.628;-1.624;2023-03-23T12:51:43;20.00;50.60
73121;DHT22;61307;49.628;-1.624;2023-03-23T12:54:16;20.00;50.60
73121;DHT22;61307;49.628;-1.624;2023-03-23T12:56:51;20.00;50.50
73121;DHT22;61307;49.628;-1.624;2023-03-23T12:59:25;20.00;50.60
73121;DHT22;61307;49.628;-1.624;2023-03-23T13:01:59;20.00;50.60
73121;DHT22;61307;49.628;-1.624;2023-03-23T13:04:32;20.00;50.60
73121;DHT22;61307;49.628;-1.624;2023-03-23T13:07:01;20.00;50.70
73121;DHT22;61307;49.628;-1.624;2023-03-23T13:09:42;20.00;50.70
73121;DHT22;61307;49.628;-1.624;2023-03-23T13:12:15;20.00;50.80
73121;DHT22;61307;49.628;-1.624;2023-03-23T13:14:50;20.10;50.90
73121;DHT22;61307;49.628;-1.624;2023-03-23T13:17:28;20.10;51.00
73121;DHT22;61307;49.628;-1.624;2023-03-23T13:20:32;20.10;50.90
73121;DHT22;61307;49.628;-1.624;2023-03-23T13:23:07;20.10;51.00
73121;DHT22;61307;49.628;-1.624;2023-03-23T13:25:54;20.10;50.90
73121;DHT22;61307;49.628;-1.624;2023-03-23T13:28:26;20.10;51.00
73121;DHT22;61307;49.628;-1.624;2023-03-23T13:30:56;20.00;50.90
73121;DHT22;61307;49.628;-1.624;2023-03-23T13:33:31;20.00;50.90
73121;DHT22;61307;49.628;-1.624;2023-03-23T13:36:13;20.00;50.90
73121;DHT22;61307;49.628;-1.624;2023-03-23T13:38:46;20.10;51.00
73121;DHT22;61307;49.628;-1.624;2023-03-23T13:41:17;20.00;50.90
73121;DHT22;61307;49.628;-1.624;2023-03-23T13:43:48;20.00;50.90
73121;DHT22;61307;49.628;-1.624;2023-03-23T13:46:27;20.00;50.90
73121;DHT22;61307;49.628;-1.624;2023-03-23T13:49:19;20.00;50.90
73121;DHT22;61307;49.628;-1.624;2023-03-23T13:54:40;20.00;51.00
73121;DHT22;61307;49.628;-1.624;2023-03-23T13:57:48;20.00;51.00
73121;DHT22;61307;49.628;-1.624;2023-03-23T14:00:46;20.00;51.00
73121;DHT22;61307;49.628;-1.624;2023-03-23T14:03:17;20.00;50.90
73121;DHT22;61307;49.628;-1.624;2023-03-23T14:05:48;20.00;51.00
73121;DHT22;61307;49.628;-1.624;2023-03-23T14:08:22;20.00;51.00
73121;DHT22;61307;49.628;-1.624;2023-03-23T14:10:53;20.00;51.00
73121;DHT22;61307;49.628;-1.624;2023-03-23T14:13:30;20.00;51.00
73121;DHT22;61307;49.628;-1.624;2023-03-23T14:16:01;20.00;51.10
73121;DHT22;61307;49.628;-1.624;2023-03-23T14:18:36;20.00;51.20
73121;DHT22;61307;49.628;-1.624;2023-03-23T14:21:06;20.00;51.30
73121;DHT22;61307;49.628;-1.624;2023-03-23T14:23:39;20.00;51.30
73121;DHT22;61307;49.628;-1.624;2023-03-23T14:26:12;20.00;51.50
73121;DHT22;61307;49.628;-1.624;2023-03-23T14:28:45;20.00;51.30
73121;DHT22;61307;49.628;-1.624;2023-03-23T14:31:19;20.10;51.50
73121;DHT22;61307;49.628;-1.624;2023-03-23T14:33:47;20.10;51.60
73121;DHT22;61307;49.628;-1.624;2023-03-23T14:36:20;20.10;52.30
73121;DHT22;61307;49.628;-1.624;2023-03-23T14:38:48;20.00;51.60
73121;DHT22;61307;49.628;-1.624;2023-03-23T14:41:16;20.10;51.70
73121;DHT22;61307;49.628;-1.624;2023-03-23T14:43:45;20.10;51.80
73121;DHT22;61307;49.628;-1.624;2023-03-23T14:46:14;20.10;51.80
73121;DHT22;61307;49.628;-1.624;2023-03-23T14:48:41;20.10;51.90
73121;DHT22;61307;49.628;-1.624;2023-03-23T14:51:17;20.10;51.90
73121;DHT22;61307;49.628;-1.624;2023-03-23T14:53:45;20.10;52.00
73121;DHT22;61307;49.628;-1.624;2023-03-23T14:56:15;20.10;52.40
73121;DHT22;61307;49.628;-1.624;2023-03-23T14:58:48;20.10;52.50
73121;DHT22;61307;49.628;-1.624;2023-03-23T15:01:19;20.20;52.60
73121;DHT22;61307;49.628;-1.624;2023-03-23T15:03:56;20.20;52.60
73121;DHT22;61307;49.628;-1.624;2023-03-23T15:06:27;20.20;52.70
73121;DHT22;61307;49.628;-1.624;2023-03-23T15:08:59;20.30;52.70
73121;DHT22;61307;49.628;-1.624;2023-03-23T15:11:29;20.30;52.70
73121;DHT22;61307;49.628;-1.624;2023-03-23T15:14:02;20.30;52.80
73121;DHT22;61307;49.628;-1.624;2023-03-23T15:16:31;20.30;52.70
73121;DHT22;61307;49.628;-1.624;2023-03-23T15:19:01;20.30;52.80
73121;DHT22;61307;49.628;-1.624;2023-03-23T15:21:31;20.30;52.70
73121;DHT22;61307;49.628;-1.624;2023-03-23T15:24:00;20.30;52.80
73121;DHT22;61307;49.628;-1.624;2023-03-23T15:26:33;20.30;52.90
73121;DHT22;61307;49.628;-1.624;2023-03-23T15:29:13;20.30;52.80
73121;DHT22;61307;49.628;-1.624;2023-03-23T15:31:43;20.30;52.90
73121;DHT22;61307;49.628;-1.624;2023-03-23T15:34:29;20.30;52.80
73121;DHT22;61307;49.628;-1.624;2023-03-23T15:37:16;20.30;53.00
73121;DHT22;61307;49.628;-1.624;2023-03-23T15:39:45;20.30;53.10
73121;DHT22;61307;49.628;-1.624;2023-03-23T15:42:21;20.30;53.20
73121;DHT22;61307;49.628;-1.624;2023-03-23T15:44:58;20.30;53.30
73121;DHT22;61307;49.628;-1.624;2023-03-23T15:47:35;20.30;53.20
73121;DHT22;61307;49.628;-1.624;2023-03-23T15:50:08;20.30;53.20
73121;DHT22;61307;49.628;-1.624;2023-03-23T15:52:36;20.30;53.20